Time;durP1;ratioP1;P1;durP2;ratioP2;P2;SDS_P1;SDS_P2;PMS_P1;PMS_P2;Temp;Humidity;BMP_temperature;BMP_pressure;BME280_temperature;BME280_humidity;BME280_pressure;Samples;Min_cycle;Max_cycle;Signal;HPM_P1;HPM_P2
2023/01/19 00:01:22;;;;;;;4.22;3.45;;;4.50;82.20;;;;;;5106391;28;20459;-62
2023/01/19 00:03:47;;;;;;;7.53;4.85;;;4.50;82.50;;;;;;5095639;28;20023;-61
2023/01/19 00:06:14;;;;;;;5.88;3.83;;;4.50;82.70;;;;;;5084415;28;20039;-62
2023/01/19 00:08:39;;;;;;;5.40;3.53;;;4.50;82.80;;;;;;5100132;28;20091;-62
2023/01/19 00:11:05;;;;;;;13.40;4.63;;;4.50;82.70;;;;;;5087114;28;20027;-62
2023/01/19 00:13:32;;;;;;;7.28;3.50;;;4.50;82.60;;;;;;5097041;28;20092;-63
2023/01/19 00:15:57;;;;;;;5.57;3.38;;;4.60;82.50;;;;;;5094047;28;20535;-62
2023/01/19 00:18:24;;;;;;;4.72;3.63;;;4.60;82.50;;;;;;5097953;28;20032;-62
2023/01/19 00:20:50;;;;;;;5.05;3.83;;;4.60;82.60;;;;;;5070321;28;20394;-67
2023/01/19 00:23:16;;;;;;;10.95;4.88;;;4.60;82.60;;;;;;5078408;28;20023;-62
2023/01/19 00:25:42;;;;;;;8.32;4.38;;;4.60;82.80;;;;;;5100579;28;20490;-67
2023/01/19 00:28:12;;;;;;;5.50;3.83;;;4.60;82.80;;;;;;5093310;28;20024;-62
2023/01/19 00:30:38;;;;;;;4.43;3.28;;;4.60;83.60;;;;;;5099761;28;20032;-66
2023/01/19 00:33:04;;;;;;;4.82;3.50;;;4.60;82.90;;;;;;5097288;28;20026;-66
2023/01/19 00:35:30;;;;;;;7.47;5.00;;;4.60;82.80;;;;;;5065487;28;20032;-67
2023/01/19 00:37:57;;;;;;;5.10;4.10;;;4.60;82.80;;;;;;5086759;28;20132;-67
2023/01/19 00:40:23;;;;;;;4.20;3.33;;;4.60;82.80;;;;;;5087456;28;20032;-65
2023/01/19 00:42:48;;;;;;;6.85;3.03;;;4.60;82.70;;;;;;5095857;28;20520;-62
2023/01/19 00:45:19;;;;;;;8.30;4.18;;;4.60;82.70;;;;;;5087619;28;20043;-63
2023/01/19 00:47:47;;;;;;;5.20;3.58;;;4.60;82.60;;;;;;5083853;28;20032;-62
2023/01/19 00:50:15;;;;;;;8.60;4.18;;;4.60;82.60;;;;;;5067426;28;20044;-66
2023/01/19 00:52:43;;;;;;;5.63;3.90;;;4.60;82.80;;;;;;5087288;28;20088;-67
2023/01/19 00:55:14;;;;;;;5.82;4.40;;;4.60;82.80;;;;;;5099557;28;20052;-66
2023/01/19 00:57:40;;;;;;;6.70;3.95;;;4.60;82.70;;;;;;5083855;28;20108;-61
2023/01/19 01:00:12;;;;;;;7.13;4.03;;;4.60;83.00;;;;;;5094956;28;20048;-61
2023/01/19 01:02:39;;;;;;;9.23;4.28;;;4.60;82.60;;;;;;5085821;28;20024;-62
2023/01/19 01:05:05;;;;;;;11.50;4.60;;;4.60;82.80;;;;;;5092963;28;20024;-63
2023/01/19 01:07:43;;;;;;;6.57;4.95;;;4.60;82.70;;;;;;5088828;28;20471;-63
2023/01/19 01:10:20;;;;;;;10.93;5.25;;;4.60;82.90;;;;;;5090636;28;20032;-63
2023/01/19 01:12:47;;;;;;;9.20;4.45;;;4.60;83.50;;;;;;5092014;28;20043;-66
2023/01/19 01:15:15;;;;;;;9.65;3.88;;;4.50;83.00;;;;;;5073981;28;20025;-62
2023/01/19 01:17:46;;;;;;;7.93;5.80;;;4.50;83.10;;;;;;5094838;28;20105;-67
2023/01/19 01:20:22;;;;;;;5.38;4.32;;;4.60;83.20;;;;;;5103413;28;20467;-61
2023/01/19 01:22:51;;;;;;;6.80;4.15;;;4.50;83.20;;;;;;5094555;28;20022;-62
2023/01/19 01:25:21;;;;;;;10.38;4.82;;;4.50;83.40;;;;;;5091701;28;20024;-63
2023/01/19 01:27:47;;;;;;;7.13;3.95;;;4.50;83.60;;;;;;5085572;28;20036;-66
2023/01/19 01:30:14;;;;;;;6.25;3.70;;;4.40;83.60;;;;;;5082739;28;20276;-66
2023/01/19 01:32:40;;;;;;;6.45;3.42;;;4.40;83.70;;;;;;5098829;28;20025;-62
2023/01/19 01:35:07;;;;;;;4.47;3.75;;;4.40;83.70;;;;;;5097330;28;20475;-67
2023/01/19 01:37:34;;;;;;;5.28;4.07;;;4.40;83.70;;;;;;5087938;28;20432;-66
2023/01/19 01:39:59;;;;;;;6.65;4.18;;;4.40;83.80;;;;;;5088395;28;20028;-67
2023/01/19 01:42:30;;;;;;;6.47;3.25;;;4.50;83.80;;;;;;5106270;28;20034;-61
2023/01/19 01:44:58;;;;;;;7.88;3.72;;;4.50;83.70;;;;;;5089305;28;20032;-66
2023/01/19 01:47:46;;;;;;;6.63;4.72;;;4.40;83.80;;;;;;5106332;28;20032;-66
2023/01/19 01:50:28;;;;;;;9.05;3.53;;;4.50;83.90;;;;;;5117184;27;20035;-66
2023/01/19 01:53:12;;;;;;;5.28;4.10;;;4.40;83.90;;;;;;5104604;28;20031;-62
2023/01/19 01:55:42;;;;;;;5.68;3.65;;;4.50;84.00;;;;;;5088386;28;20109;-61
2023/01/19 01:58:09;;;;;;;5.72;3.90;;;4.40;84.10;;;;;;5092212;28;20035;-65
2023/01/19 02:03:23;;;;;;;5.43;3.92;;;4.40;84.20;;;;;;5087801;28;20035;-63
2023/01/19 02:05:49;;;;;;;4.32;3.42;;;4.40;84.20;;;;;;5081157;28;20058;-62
2023/01/19 02:14:04;;;;;;;5.40;3.40;;;4.20;84.20;;;;;;5091791;28;20038;-66
2023/01/19 02:16:30;;;;;;;6.13;4.18;;;4.10;84.30;;;;;;5090380;28;20032;-66
2023/01/19 02:18:56;;;;;;;4.53;3.20;;;4.10;84.40;;;;;;5087141;28;20542;-66
2023/01/19 02:21:34;;;;;;;4.28;3.45;;;4.10;84.50;;;;;;5073499;28;20115;-66
2023/01/19 02:24:01;;;;;;;4.13;3.42;;;4.10;84.50;;;;;;5097312;28;20024;-67
2023/01/19 02:26:35;;;;;;;4.72;3.15;;;4.10;84.50;;;;;;5090637;28;20073;-67
2023/01/19 02:29:09;;;;;;;3.75;2.75;;;4.00;84.50;;;;;;5084980;28;20073;-67
2023/01/19 02:31:37;;;;;;;4.05;3.10;;;4.00;84.40;;;;;;5089078;28;20027;-66
2023/01/19 02:34:05;;;;;;;3.63;3.00;;;3.90;84.50;;;;;;5071873;28;20462;-66
2023/01/19 02:36:46;;;;;;;4.55;3.25;;;3.90;84.50;;;;;;5081753;28;20043;-66
2023/01/19 02:39:14;;;;;;;3.40;3.00;;;3.80;84.50;;;;;;5093862;28;20025;-66
2023/01/19 02:41:45;;;;;;;3.45;3.00;;;3.70;84.50;;;;;;5070204;28;20136;-66
2023/01/19 02:44:13;;;;;;;4.45;3.00;;;3.70;84.70;;;;;;5085701;28;20130;-66
2023/01/19 02:46:39;;;;;;;3.88;2.85;;;3.60;84.70;;;;;;5064132;28;20537;-66
2023/01/19 02:49:05;;;;;;;3.65;2.67;;;3.50;84.90;;;;;;5087928;28;20035;-67
2023/01/19 02:51:32;;;;;;;3.80;2.88;;;3.50;85.10;;;;;;5089786;28;20495;-62
2023/01/19 02:54:12;;;;;;;5.45;3.00;;;3.40;85.10;;;;;;5090323;28;20032;-61
2023/01/19 02:57:23;;;;;;;3.30;3.00;;;3.30;85.20;;;;;;5102491;27;20112;-62
2023/01/19 02:59:58;;;;;;;8.43;2.78;;;3.40;85.40;;;;;;5071020;28;20032;-62
2023/01/19 03:02:50;;;;;;;7.50;3.15;;;3.40;85.60;;;;;;5061698;28;20493;-67
2023/01/19 03:05:48;;;;;;;5.63;2.93;;;3.40;85.60;;;;;;5054325;28;20074;-66
2023/01/19 03:08:29;;;;;;;5.07;2.95;;;3.30;85.80;;;;;;5074095;28;20047;-66
2023/01/19 03:10:57;;;;;;;3.97;2.55;;;3.30;86.00;;;;;;5075836;28;20116;-66
2023/01/19 03:13:50;;;;;;;2.88;2.45;;;3.30;86.10;;;;;;5080099;28;20058;-66
2023/01/19 03:16:20;;;;;;;;;;;3.40;86.20;;;;;;5076347;28;20020;-66
2023/01/19 03:18:57;;;;;;;3.70;2.42;;;3.30;86.30;;;;;;5090689;28;20015;-66
2023/01/19 03:21:26;;;;;;;2.92;2.17;;;3.30;86.50;;;;;;5072384;28;20089;-66
2023/01/19 03:23:55;;;;;;;3.08;2.10;;;3.30;86.50;;;;;;5092756;28;20374;-66
2023/01/19 03:26:28;;;;;;;3.50;2.30;;;3.30;86.60;;;;;;5090138;28;20112;-66
2023/01/19 03:28:58;;;;;;;3.38;1.90;;;3.30;86.50;;;;;;5085117;28;20478;-66
2023/01/19 03:31:26;;;;;;;2.53;1.80;;;3.30;86.40;;;;;;5071767;28;20043;-66
2023/01/19 03:34:01;;;;;;;1.58;1.48;;;3.30;86.30;;;;;;5091744;28;20024;-66
2023/01/19 03:36:42;;;;;;;1.85;1.70;;;3.40;86.30;;;;;;5090387;28;20455;-66
2023/01/19 03:39:10;;;;;;;2.53;1.70;;;3.40;86.20;;;;;;5089807;28;20027;-66
2023/01/19 03:41:38;;;;;;;5.53;1.45;;;3.40;86.10;;;;;;5089863;28;20023;-66
2023/01/19 03:44:05;;;;;;;1.92;1.52;;;3.40;86.00;;;;;;5092009;28;20119;-61
2023/01/19 03:46:31;;;;;;;1.45;1.15;;;3.40;85.90;;;;;;5093419;28;20504;-61
2023/01/19 03:48:58;;;;;;;1.30;1.20;;;3.50;85.90;;;;;;5097090;28;20121;-61
2023/01/19 03:51:23;;;;;;;2.05;1.45;;;3.50;85.70;;;;;;5090254;28;20035;-62
2023/01/19 03:53:49;;;;;;;1.58;1.35;;;3.50;85.50;;;;;;5075237;28;20028;-61
2023/01/19 03:56:24;;;;;;;0.88;0.88;;;3.50;85.70;;;;;;5094759;28;20027;-66
2023/01/19 03:58:51;;;;;;;1.75;1.25;;;3.50;85.60;;;;;;5057401;28;20111;-66
2023/01/19 04:01:21;;;;;;;0.80;0.80;;;3.50;85.60;;;;;;5072858;28;20020;-65
2023/01/19 04:03:48;;;;;;;1.35;1.25;;;3.60;85.50;;;;;;5070917;28;20043;-66
2023/01/19 04:06:13;;;;;;;1.40;1.13;;;3.60;85.40;;;;;;5093185;28;20036;-61
2023/01/19 04:08:39;;;;;;;0.90;0.73;;;3.60;85.40;;;;;;5075029;28;20058;-62
2023/01/19 04:11:07;;;;;;;1.48;0.82;;;3.70;85.30;;;;;;5090983;28;20092;-61
2023/01/19 04:13:33;;;;;;;0.63;0.50;;;3.70;85.10;;;;;;5091406;28;20059;-63
2023/01/19 04:16:03;;;;;;;1.75;1.08;;;3.70;85.10;;;;;;5089908;28;20028;-61
2023/01/19 04:18:30;;;;;;;1.25;0.70;;;3.80;85.10;;;;;;5070125;28;20020;-62
2023/01/19 04:21:00;;;;;;;0.88;0.50;;;3.80;85.00;;;;;;5080653;28;20409;-66
2023/01/19 04:23:26;;;;;;;0.73;0.63;;;3.90;85.00;;;;;;5080548;28;20453;-65
2023/01/19 04:26:04;;;;;;;0.50;0.40;;;3.90;84.90;;;;;;5069785;28;20029;-65
2023/01/19 04:28:32;;;;;;;1.10;0.63;;;3.90;84.90;;;;;;5097985;28;20031;-66
2023/01/19 04:30:58;;;;;;;0.30;0.30;;;3.90;84.90;;;;;;5102351;28;20027;-66
2023/01/19 04:33:24;;;;;;;0.30;0.30;;;3.90;85.00;;;;;;5077273;28;20593;-66
2023/01/19 04:35:51;;;;;;;2.15;0.40;;;3.90;85.20;;;;;;5103103;28;20463;-66
2023/01/19 04:38:18;;;;;;;0.47;0.40;;;3.90;85.30;;;;;;5096133;28;20545;-65
2023/01/19 04:40:44;;;;;;;1.85;0.40;;;3.90;85.40;;;;;;5102101;28;20051;-66
2023/01/19 04:43:10;;;;;;;0.45;0.32;;;3.90;85.50;;;;;;5102330;28;20080;-66
2023/01/19 04:45:36;;;;;;;1.17;0.40;;;3.90;85.50;;;;;;5096082;28;20463;-66
2023/01/19 04:48:04;;;;;;;0.63;0.40;;;3.90;85.40;;;;;;5095959;28;20020;-61
2023/01/19 04:50:30;;;;;;;5.28;0.43;;;3.90;85.50;;;;;;5100022;28;20042;-61
2023/01/19 04:52:56;;;;;;;0.32;0.30;;;3.80;85.50;;;;;;5098957;28;20023;-62
2023/01/19 04:55:22;;;;;;;0.35;0.35;;;3.80;85.70;;;;;;5105131;28;20093;-62
2023/01/19 04:57:48;;;;;;;0.20;0.20;;;3.80;85.80;;;;;;5085358;28;20432;-60
2023/01/19 05:00:14;;;;;;;0.25;0.25;;;3.80;85.80;;;;;;5101193;28;20035;-61
2023/01/19 05:02:42;;;;;;;1.20;0.30;;;3.70;85.80;;;;;;5080838;28;20020;-61
2023/01/19 05:05:08;;;;;;;0.52;0.50;;;3.80;85.90;;;;;;5103168;28;20390;-61
2023/01/19 05:07:34;;;;;;;0.75;0.63;;;3.80;85.90;;;;;;5104689;28;20032;-61
2023/01/19 05:10:00;;;;;;;1.60;0.98;;;3.80;86.00;;;;;;5106564;28;20027;-61
2023/01/19 05:12:26;;;;;;;1.40;0.52;;;3.70;86.00;;;;;;5092910;28;20070;-61
2023/01/19 05:14:52;;;;;;;1.15;0.70;;;3.80;86.10;;;;;;5105780;28;20032;-66
2023/01/19 05:17:17;;;;;;;0.95;0.65;;;3.80;86.10;;;;;;5096343;28;20051;-66
2023/01/19 05:19:44;;;;;;;0.88;0.65;;;3.90;86.00;;;;;;5088239;28;20048;-62
2023/01/19 05:22:10;;;;;;;0.45;0.45;;;4.00;85.90;;;;;;5098565;28;20031;-61
2023/01/19 05:24:35;;;;;;;1.85;0.82;;;3.90;85.80;;;;;;5100146;28;20038;-62
2023/01/19 05:27:01;;;;;;;1.08;0.90;;;3.90;85.70;;;;;;5079798;28;20029;-66
2023/01/19 05:29:27;;;;;;;0.73;0.70;;;3.90;85.80;;;;;;5103717;28;20038;-62
2023/01/19 05:31:53;;;;;;;1.10;0.98;;;3.90;85.80;;;;;;5102322;28;20116;-62
2023/01/19 05:34:18;;;;;;;0.68;0.50;;;4.00;85.80;;;;;;5064990;28;20417;-62
2023/01/19 05:36:44;;;;;;;0.50;0.40;;;4.00;85.90;;;;;;5060916;28;20069;-62
2023/01/19 05:39:10;;;;;;;1.13;0.80;;;4.00;85.90;;;;;;5097412;28;20024;-66
2023/01/19 05:41:36;;;;;;;1.25;0.70;;;4.00;85.80;;;;;;5099334;28;20028;-66
2023/01/19 05:44:01;;;;;;;2.28;0.57;;;4.00;85.70;;;;;;5089816;28;20042;-66
2023/01/19 05:46:27;;;;;;;2.58;0.57;;;4.00;86.20;;;;;;5080837;28;20032;-66
2023/01/19 05:48:53;;;;;;;1.33;0.75;;;4.00;85.60;;;;;;5095679;28;20043;-61
2023/01/19 05:51:18;;;;;;;0.60;0.43;;;4.10;85.60;;;;;;5094951;28;20032;-62
2023/01/19 05:53:44;;;;;;;0.90;0.52;;;4.10;85.50;;;;;;5100832;28;20027;-62
2023/01/19 05:56:10;;;;;;;0.40;0.40;;;4.10;85.40;;;;;;5091132;28;20035;-62
2023/01/19 05:58:40;;;;;;;1.08;0.63;;;4.20;85.40;;;;;;5079351;28;20540;-61
2023/01/19 06:01:08;;;;;;;1.25;0.70;;;4.10;85.30;;;;;;5074032;28;20028;-62
2023/01/19 06:03:35;;;;;;;3.60;0.50;;;4.10;85.40;;;;;;5091743;28;20051;-66
2023/01/19 06:06:01;;;;;;;0.55;0.55;;;4.10;85.50;;;;;;5082776;28;20024;-67
2023/01/19 06:08:28;;;;;;;0.75;0.55;;;4.10;85.50;;;;;;5079712;28;20488;-66
2023/01/19 06:10:53;;;;;;;0.68;0.50;;;4.20;85.60;;;;;;5093600;27;20032;-66
2023/01/19 06:13:19;;;;;;;0.50;0.50;;;4.10;85.60;;;;;;5079857;28;20398;-66
2023/01/19 06:15:45;;;;;;;1.70;1.05;;;4.20;85.70;;;;;;5084660;28;20071;-62
2023/01/19 06:18:11;;;;;;;0.43;0.43;;;4.10;85.70;;;;;;5087402;28;20031;-62
2023/01/19 06:20:37;;;;;;;1.92;0.73;;;4.20;85.70;;;;;;5080048;28;20495;-62
2023/01/19 06:23:03;;;;;;;1.98;0.60;;;4.20;85.70;;;;;;5085547;28;20536;-62
2023/01/19 06:25:28;;;;;;;2.28;0.70;;;4.20;85.70;;;;;;5092532;28;20097;-66
2023/01/19 06:27:54;;;;;;;0.50;0.50;;;4.20;85.80;;;;;;5090886;28;20020;-66
2023/01/19 06:30:20;;;;;;;1.40;0.57;;;4.20;85.70;;;;;;5088548;28;20043;-61
2023/01/19 06:32:46;;;;;;;5.30;1.02;;;4.20;86.30;;;;;;5078706;28;20043;-61
2023/01/19 06:35:12;;;;;;;0.60;0.60;;;4.30;85.80;;;;;;5091459;28;20024;-61
2023/01/19 06:37:39;;;;;;;1.50;0.85;;;4.30;85.80;;;;;;5087885;28;20467;-61
2023/01/19 06:40:05;;;;;;;0.65;0.50;;;4.30;85.80;;;;;;5081456;28;20016;-61
2023/01/19 06:42:31;;;;;;;0.80;0.63;;;4.30;85.70;;;;;;5105029;28;20135;-66
2023/01/19 06:44:57;;;;;;;2.55;0.68;;;4.40;85.60;;;;;;5076505;28;20118;-66
2023/01/19 06:47:23;;;;;;;4.95;0.68;;;4.40;85.60;;;;;;5106386;28;20035;-67
2023/01/19 06:49:48;;;;;;;1.80;1.15;;;4.40;85.50;;;;;;5106038;28;20095;-66
2023/01/19 06:52:16;;;;;;;1.92;0.88;;;4.50;85.50;;;;;;5105006;28;20070;-66
2023/01/19 06:54:42;;;;;;;1.42;0.75;;;4.50;85.50;;;;;;5069618;28;20422;-66
2023/01/19 06:57:09;;;;;;;1.60;0.70;;;4.40;85.40;;;;;;5106279;28;20024;-66
2023/01/19 06:59:35;;;;;;;3.13;0.80;;;4.40;85.40;;;;;;5100842;28;20031;-66
2023/01/19 07:02:00;;;;;;;3.15;1.13;;;4.50;85.40;;;;;;5092614;28;20068;-62
2023/01/19 07:04:26;;;;;;;1.90;1.23;;;4.40;85.50;;;;;;5074224;28;20487;-62
2023/01/19 07:06:52;;;;;;;1.65;0.90;;;4.40;85.50;;;;;;5088838;28;20032;-62
2023/01/19 07:09:19;;;;;;;3.60;0.90;;;4.40;85.70;;;;;;5076905;28;20085;-61
2023/01/19 07:11:46;;;;;;;5.55;1.00;;;4.40;85.70;;;;;;5080871;28;20036;-61
2023/01/19 07:14:12;;;;;;;2.20;0.90;;;4.40;85.50;;;;;;5075925;28;20070;-61
2023/01/19 07:16:37;;;;;;;8.95;1.17;;;4.50;85.50;;;;;;5091643;28;20032;-61
2023/01/19 07:19:03;;;;;;;4.53;1.48;;;4.50;85.50;;;;;;5079873;28;20131;-61
2023/01/19 07:21:29;;;;;;;1.88;0.95;;;4.40;86.30;;;;;;5088947;28;20077;-61
2023/01/19 07:23:55;;;;;;;3.13;1.38;;;4.40;85.70;;;;;;5096816;28;20102;-62
2023/01/19 07:26:23;;;;;;;11.85;2.17;;;4.40;85.80;;;;;;5089814;28;20074;-61
2023/01/19 07:28:50;;;;;;;4.18;1.13;;;4.40;85.80;;;;;;5082838;28;20035;-61
2023/01/19 07:31:17;;;;;;;2.33;1.10;;;4.40;85.90;;;;;;5092175;28;20032;-61
2023/01/19 07:33:43;;;;;;;5.60;0.95;;;4.40;86.00;;;;;;5089010;28;20110;-62
2023/01/19 07:36:09;;;;;;;0.98;0.82;;;4.40;86.00;;;;;;5094606;28;20420;-62
2023/01/19 07:38:35;;;;;;;2.20;1.30;;;4.40;86.00;;;;;;5102384;28;20028;-62
2023/01/19 07:41:05;;;;;;;6.35;1.35;;;4.50;85.90;;;;;;5101893;28;20024;-62
2023/01/19 07:43:31;;;;;;;3.20;1.02;;;4.60;85.70;;;;;;5088341;28;20020;-67
2023/01/19 07:45:58;;;;;;;5.93;0.93;;;4.60;85.60;;;;;;5070580;28;20487;-62
2023/01/19 07:48:24;;;;;;;1.13;0.88;;;4.60;85.60;;;;;;5088731;28;20389;-62
2023/01/19 07:50:50;;;;;;;1.30;1.15;;;4.60;85.50;;;;;;5093751;28;20116;-63
2023/01/19 07:53:16;;;;;;;4.15;1.58;;;4.60;85.60;;;;;;5093064;28;20038;-63
2023/01/19 07:55:42;;;;;;;5.63;2.10;;;4.60;85.60;;;;;;5069934;28;20032;-62
2023/01/19 07:58:08;;;;;;;5.75;1.70;;;4.60;85.60;;;;;;5088754;28;20024;-62
2023/01/19 08:00:35;;;;;;;3.05;1.67;;;4.50;85.70;;;;;;5073846;28;20032;-61
2023/01/19 08:03:02;;;;;;;2.30;1.38;;;4.50;85.80;;;;;;5083777;28;20028;-62
2023/01/19 08:05:28;;;;;;;1.88;1.00;;;4.50;85.70;;;;;;5083322;28;20032;-63
2023/01/19 08:07:58;;;;;;;3.47;1.80;;;4.50;85.80;;;;;;5089508;28;20139;-69
2023/01/19 08:10:25;;;;;;;2.65;1.35;;;4.50;85.80;;;;;;5097317;28;20044;-71
2023/01/19 08:12:55;;;;;;;2.60;1.42;;;4.40;85.90;;;;;;5054325;28;20024;-66
2023/01/19 08:15:22;;;;;;;1.90;1.63;;;4.40;85.90;;;;;;5070573;28;20062;-66
2023/01/19 08:17:55;;;;;;;7.90;1.25;;;4.40;85.80;;;;;;5073576;28;20027;-66
2023/01/19 08:20:22;;;;;;;1.08;0.88;;;4.40;85.90;;;;;;5086086;28;20048;-65
2023/01/19 08:22:48;;;;;;;1.67;0.90;;;4.50;85.90;;;;;;5087640;28;20026;-66
2023/01/19 08:25:14;;;;;;;0.95;0.95;;;4.50;85.70;;;;;;5075876;28;20111;-71
2023/01/19 08:27:40;;;;;;;3.45;1.67;;;4.50;85.50;;;;;;5085777;28;20113;-70
2023/01/19 08:30:06;;;;;;;1.48;1.38;;;4.60;85.40;;;;;;5092305;28;20072;-69
2023/01/19 08:32:31;;;;;;;1.38;1.15;;;4.50;85.30;;;;;;5095420;28;20423;-68
2023/01/19 08:34:57;;;;;;;1.55;1.15;;;4.50;85.50;;;;;;5089158;28;20114;-67
2023/01/19 08:37:23;;;;;;;1.77;1.25;;;4.50;85.60;;;;;;5087935;28;20058;-68
2023/01/19 08:39:49;;;;;;;8.90;1.80;;;4.40;85.60;;;;;;5082895;28;20020;-68
2023/01/19 08:42:15;;;;;;;2.15;1.65;;;4.40;85.60;;;;;;5071935;28;20069;-68
2023/01/19 08:44:41;;;;;;;3.75;1.42;;;4.40;85.70;;;;;;5076295;28;20028;-67
2023/01/19 08:47:07;;;;;;;4.20;2.00;;;4.50;85.90;;;;;;5097680;28;20036;-64
2023/01/19 08:49:34;;;;;;;3.83;1.65;;;4.40;85.90;;;;;;5073298;28;20375;-70
2023/01/19 08:52:01;;;;;;;3.42;1.65;;;4.40;86.00;;;;;;5080548;28;20110;-70
2023/01/19 08:54:27;;;;;;;4.25;1.60;;;4.40;86.00;;;;;;5077914;28;20032;-71
2023/01/19 08:56:53;;;;;;;4.93;1.80;;;4.40;86.00;;;;;;5090868;28;20043;-65
2023/01/19 08:59:19;;;;;;;5.53;1.90;;;4.50;86.00;;;;;;5100354;28;20027;-67
2023/01/19 09:01:44;;;;;;;7.82;1.63;;;4.50;86.00;;;;;;5092151;28;20020;-64
2023/01/19 09:04:10;;;;;;;1.27;1.17;;;4.50;85.80;;;;;;5091670;28;20052;-64
2023/01/19 09:06:36;;;;;;;3.47;2.17;;;4.60;85.60;;;;;;5081840;28;20036;-68
2023/01/19 09:09:01;;;;;;;2.17;1.60;;;4.60;85.60;;;;;;5080362;28;20036;-69
2023/01/19 09:11:27;;;;;;;3.25;1.98;;;4.60;85.60;;;;;;5092656;28;20028;-69
2023/01/19 09:13:53;;;;;;;10.48;2.63;;;4.60;85.60;;;;;;5091988;28;20044;-69
2023/01/19 09:16:19;;;;;;;7.32;2.50;;;4.60;85.60;;;;;;5091455;28;20032;-62
2023/01/19 09:18:44;;;;;;;4.57;1.70;;;4.70;85.40;;;;;;5095827;28;20061;-64
2023/01/19 09:21:10;;;;;;;1.88;1.45;;;4.70;85.30;;;;;;5083288;28;20051;-65
2023/01/19 09:23:36;;;;;;;2.92;2.25;;;4.70;85.20;;;;;;5063844;28;20020;-67
2023/01/19 09:26:04;;;;;;;5.05;1.88;;;4.80;85.30;;;;;;5090473;28;20036;-67
2023/01/19 09:28:30;;;;;;;2.03;1.45;;;4.80;85.30;;;;;;5081320;28;20378;-66
2023/01/19 09:30:56;;;;;;;3.78;2.03;;;4.80;85.30;;;;;;5091132;28;20024;-61
2023/01/19 09:33:23;;;;;;;5.35;2.08;;;4.80;85.20;;;;;;5069278;28;20032;-61
2023/01/19 09:35:50;;;;;;;1.70;1.38;;;4.90;85.10;;;;;;5079444;28;20024;-61
2023/01/19 09:38:18;;;;;;;10.38;2.28;;;4.90;85.10;;;;;;5106290;28;20470;-60
2023/01/19 09:40:48;;;;;;;6.00;2.03;;;4.90;85.20;;;;;;5092142;28;20032;-60
2023/01/19 09:43:19;;;;;;;1.65;1.42;;;5.00;85.20;;;;;;5105421;27;20032;-66
2023/01/19 09:45:54;;;;;;;4.75;1.73;;;5.10;85.20;;;;;;5093227;28;20081;-66
2023/01/19 09:48:50;;;;;;;4.22;1.95;;;5.10;85.20;;;;;;5084587;28;20032;-66
2023/01/19 09:51:21;;;;;;;1.80;1.30;;;5.20;85.10;;;;;;5091492;28;20028;-66
2023/01/19 09:54:00;;;;;;;2.17;1.40;;;5.30;85.00;;;;;;5087969;28;20072;-66
2023/01/19 09:56:27;;;;;;;7.05;1.83;;;5.40;84.80;;;;;;5094688;28;20130;-66
2023/01/19 09:58:53;;;;;;;1.33;1.23;;;5.50;84.80;;;;;;5089743;28;20430;-66
2023/01/19 10:01:31;;;;;;;6.55;1.55;;;5.60;84.70;;;;;;5054718;28;20028;-66
2023/01/19 10:04:24;;;;;;;6.00;2.15;;;5.70;84.30;;;;;;5090201;28;20154;-67
2023/01/19 10:06:55;;;;;;;1.40;1.30;;;5.80;83.70;;;;;;5071202;28;20109;-61
2023/01/19 10:09:35;;;;;;;6.65;2.10;;;5.90;83.70;;;;;;5087168;28;20544;-61
2023/01/19 10:12:15;;;;;;;3.08;1.33;;;6.10;83.30;;;;;;5082969;28;20058;-61
2023/01/19 10:15:08;;;;;;;2.05;1.10;;;6.10;83.00;;;;;;5098754;28;20027;-67
2023/01/19 10:17:50;;;;;;;9.43;1.58;;;6.20;82.80;;;;;;5081740;28;20464;-61
2023/01/19 10:20:25;;;;;;;3.45;1.20;;;6.30;82.70;;;;;;5090279;28;20040;-61
2023/01/19 10:22:51;;;;;;;4.88;1.00;;;6.30;82.40;;;;;;5088578;28;20498;-61
2023/01/19 10:25:22;;;;;;;1.95;1.20;;;6.40;82.10;;;;;;5084880;28;20040;-61
2023/01/19 10:27:48;;;;;;;3.90;1.40;;;6.40;82.10;;;;;;5093632;28;20020;-68
2023/01/19 10:30:21;;;;;;;2.80;1.27;;;6.50;82.10;;;;;;5097924;28;20027;-68
2023/01/19 10:32:47;;;;;;;6.05;1.52;;;6.60;81.80;;;;;;5088613;28;20023;-68
2023/01/19 10:35:25;;;;;;;4.65;1.75;;;6.90;81.60;;;;;;5068095;28;20028;-68
2023/01/19 10:37:56;;;;;;;8.07;1.20;;;7.30;81.50;;;;;;5090839;28;20023;-68
2023/01/19 10:40:41;;;;;;;6.22;2.20;;;8.30;79.30;;;;;;5091635;28;20790;-62
2023/01/19 10:43:43;;;;;;;3.15;1.20;;;9.50;74.90;;;;;;5086533;28;20440;-68
2023/01/19 10:46:19;;;;;;;2.97;1.63;;;11.20;71.10;;;;;;5085261;28;20446;-68
2023/01/19 10:48:49;;;;;;;1.63;0.85;;;13.00;65.00;;;;;;5092380;28;20043;-60
2023/01/19 10:51:15;;;;;;;3.30;1.48;;;14.20;62.30;;;;;;5094443;28;20025;-60
2023/01/19 10:53:51;;;;;;;2.65;1.15;;;15.10;59.30;;;;;;5088888;28;20036;-60
2023/01/19 10:56:24;;;;;;;5.30;1.77;;;15.70;56.90;;;;;;5086267;28;20028;-60
2023/01/19 10:58:49;;;;;;;;;;;16.10;54.90;;;;;;5075022;28;20021;-61
2023/01/19 11:01:21;;;;;;;3.75;1.20;;;16.60;53.80;;;;;;5076288;28;19919;-61
2023/01/19 11:03:47;;;;;;;3.33;0.90;;;16.80;52.20;;;;;;5079350;28;20551;-61
2023/01/19 11:06:16;;;;;;;2.40;1.00;;;17.10;52.30;;;;;;5087395;28;20028;-61
2023/01/19 11:08:43;;;;;;;3.58;1.33;;;17.20;51.60;;;;;;5087651;28;20035;-61
2023/01/19 11:11:11;;;;;;;2.15;1.20;;;17.10;49.80;;;;;;5095021;28;20077;-61
2023/01/19 11:13:38;;;;;;;3.10;1.42;;;16.70;50.70;;;;;;5098062;28;20027;-61
2023/01/19 11:16:26;;;;;;;4.82;1.88;;;16.50;51.00;;;;;;5095651;28;20046;-61
2023/01/19 11:18:54;;;;;;;4.97;2.00;;;17.00;50.90;;;;;;5093969;28;20024;-61
2023/01/19 11:21:26;;;;;;;7.10;2.30;;;17.70;49.40;;;;;;5094995;28;20444;-61
2023/01/19 11:23:58;;;;;;;3.03;2.00;;;17.80;49.10;;;;;;5097887;28;20016;-61
2023/01/19 11:26:32;;;;;;;10.55;2.85;;;18.10;47.40;;;;;;5089524;28;20467;-60
2023/01/19 11:28:59;;;;;;;9.07;1.92;;;18.20;46.20;;;;;;5079880;28;20371;-61
2023/01/19 11:31:28;;;;;;;4.88;2.35;;;18.20;47.10;;;;;;5076658;28;20016;-60
2023/01/19 11:33:58;;;;;;;5.30;2.25;;;18.40;46.90;;;;;;5089919;28;20024;-61
2023/01/19 11:36:24;;;;;;;4.15;1.75;;;19.00;44.70;;;;;;5070251;28;20024;-60
2023/01/19 11:38:52;;;;;;;7.22;1.40;;;18.90;45.10;;;;;;5086054;28;20374;-60
2023/01/19 11:41:20;;;;;;;2.28;1.45;;;19.20;45.00;;;;;;5096563;28;20038;-61
2023/01/19 11:43:49;;;;;;;3.22;1.60;;;19.60;44.60;;;;;;5087809;28;20024;-60
2023/01/19 11:46:16;;;;;;;3.78;1.70;;;19.70;43.80;;;;;;5098681;28;20101;-61
2023/01/19 11:48:55;;;;;;;3.17;1.48;;;19.80;43.80;;;;;;5098793;28;20542;-60
2023/01/19 11:51:24;;;;;;;5.50;2.25;;;19.80;43.10;;;;;;5086369;28;20020;-60
2023/01/19 11:53:52;;;;;;;4.88;2.28;;;20.10;43.40;;;;;;5092361;28;20435;-60
2023/01/19 11:56:22;;;;;;;2.90;1.67;;;20.60;42.10;;;;;;5094189;28;20775;-61
2023/01/19 11:58:48;;;;;;;4.43;1.23;;;20.90;41.50;;;;;;5101803;28;20029;-61
2023/01/19 12:01:33;;;;;;;3.63;1.80;;;20.70;41.30;;;;;;5093105;28;20031;-60
2023/01/19 12:04:16;;;;;;;3.90;2.00;;;20.60;42.10;;;;;;5077038;28;20028;-61
2023/01/19 12:06:51;;;;;;;4.55;1.55;;;21.10;41.40;;;;;;5098370;28;20501;-61
2023/01/19 12:09:19;;;;;;;2.50;1.45;;;21.10;40.70;;;;;;5089649;28;20464;-66
2023/01/19 12:12:03;;;;;;;3.72;1.92;;;20.80;40.20;;;;;;5093764;28;20428;-60
2023/01/19 12:14:42;;;;;;;4.60;2.05;;;20.40;40.30;;;;;;5091581;28;20517;-61
2023/01/19 12:17:15;;;;;;;5.78;2.22;;;20.00;41.60;;;;;;5089165;28;20024;-66
2023/01/19 12:19:58;;;;;;;3.53;1.92;;;19.90;41.30;;;;;;5097879;28;20019;-66
2023/01/19 12:22:27;;;;;;;3.30;2.05;;;19.30;41.90;;;;;;5086005;28;20566;-66
2023/01/19 12:25:20;;;;;;;7.07;2.38;;;19.00;42.90;;;;;;5086710;28;20546;-66
2023/01/19 12:27:47;;;;;;;2.20;1.73;;;19.50;42.60;;;;;;5088652;28;20068;-66
2023/01/19 12:30:22;;;;;;;5.47;2.38;;;19.70;42.00;;;;;;5088149;28;20040;-66
2023/01/19 12:32:50;;;;;;;3.53;1.77;;;19.60;42.50;;;;;;5085595;28;20111;-66
2023/01/19 12:35:59;;;;;;;4.30;2.40;;;19.90;42.00;;;;;;5091140;28;20051;-66
2023/01/19 12:38:47;;;;;;;6.82;2.45;;;19.90;40.90;;;;;;5025154;28;20191;-66
2023/01/19 12:41:36;;;;;;;3.55;2.10;;;19.60;41.00;;;;;;5088561;28;20028;-66
2023/01/19 12:44:12;;;;;;;1.52;1.42;;;19.40;42.10;;;;;;5084321;28;20032;-61
2023/01/19 12:47:02;;;;;;;2.85;1.45;;;19.70;41.40;;;;;;5083670;28;20107;-66
2023/01/19 12:49:50;;;;;;;2.60;1.80;;;20.10;41.60;;;;;;5088569;28;20056;-66
2023/01/19 12:52:25;;;;;;;4.32;1.90;;;19.90;40.40;;;;;;5095346;28;20081;-68
2023/01/19 12:54:53;;;;;;;6.65;1.85;;;19.10;41.40;;;;;;5094597;28;20370;-66
2023/01/19 12:57:25;;;;;;;12.52;1.92;;;18.40;43.10;;;;;;5096830;28;20028;-66
2023/01/19 13:00:05;;;;;;;4.78;1.70;;;18.20;43.90;;;;;;5094209;28;20030;-60
2023/01/19 13:02:45;;;;;;;7.70;2.15;;;18.10;43.50;;;;;;5088957;28;20062;-61
2023/01/19 13:05:11;;;;;;;1.80;1.65;;;18.20;42.80;;;;;;5088273;28;20056;-60
2023/01/19 13:08:01;;;;;;;5.53;1.90;;;17.80;43.10;;;;;;5104132;28;20062;-66
2023/01/19 13:10:58;;;;;;;2.42;1.67;;;17.30;43.90;;;;;;5087785;28;20449;-60
2023/01/19 13:13:29;;;;;;;6.05;1.92;;;16.30;45.20;;;;;;5088058;28;20031;-61
2023/01/19 13:15:58;;;;;;;11.85;2.05;;;15.20;46.80;;;;;;5110469;28;20474;-61
2023/01/19 13:18:28;;;;;;;4.20;1.30;;;14.00;49.00;;;;;;5095619;28;20015;-60